createdAt,value
2017-12-28T00:00:47.777Z,983.84
2017-12-28T00:02:49.442Z,983.86
2017-12-28T00:04:51.693Z,983.86
2017-12-28T00:06:53.834Z,983.96
2017-12-28T00:08:55.400Z,984.04
2017-12-28T00:10:56.858Z,984.02
2017-12-28T00:12:59.320Z,984.06
2017-12-28T00:15:01.458Z,984.12
2017-12-28T00:17:02.939Z,984.12
2017-12-28T00:19:05.009Z,984.15
2017-12-28T00:21:06.493Z,984.19
2017-12-28T00:23:07.918Z,984.16
2017-12-28T00:25:09.353Z,984.21
2017-12-28T00:27:11.000Z,984.25
2017-12-28T00:29:12.434Z,984.28
2017-12-28T00:31:13.891Z,984.33
2017-12-28T00:33:15.865Z,984.31
2017-12-28T00:35:17.356Z,984.34
2017-12-28T00:37:19.098Z,984.34
2017-12-28T00:39:20.800Z,984.40
2017-12-28T00:41:22.429Z,984.47
2017-12-28T00:43:24.055Z,984.50
2017-12-28T00:45:26.181Z,984.52
2017-12-28T00:47:28.172Z,984.58
2017-12-28T00:49:29.867Z,984.63
2017-12-28T00:51:31.586Z,984.62
2017-12-28T00:53:33.202Z,984.70
2017-12-28T00:55:35.384Z,984.71
2017-12-28T00:57:37.019Z,984.68
2017-12-28T00:59:39.209Z,984.67
2017-12-28T01:01:40.862Z,984.68
2017-12-28T01:03:42.497Z,984.80
2017-12-28T01:05:43.928Z,984.85
2017-12-28T01:07:45.575Z,984.82
2017-12-28T01:09:47.782Z,984.90
2017-12-28T01:11:49.286Z,984.90
2017-12-28T01:13:50.744Z,984.97
2017-12-28T01:15:52.408Z,984.98
2017-12-28T01:17:53.952Z,985.10
2017-12-28T01:19:55.609Z,985.17
2017-12-28T01:21:57.160Z,985.27
2017-12-28T01:23:58.579Z,985.34
2017-12-28T01:26:01.373Z,985.35
2017-12-28T01:28:02.801Z,985.40
2017-12-28T01:30:04.252Z,985.39
2017-12-28T01:32:05.865Z,985.41
2017-12-28T01:34:08.160Z,985.42
2017-12-28T01:36:09.791Z,985.44
2017-12-28T01:38:11.389Z,985.44
2017-12-28T01:40:13.010Z,985.46
2017-12-28T01:42:14.733Z,985.52
2017-12-28T01:44:16.362Z,985.53
2017-12-28T01:46:18.071Z,985.60
2017-12-28T01:48:20.145Z,985.60
2017-12-28T01:50:22.239Z,985.62
2017-12-28T01:52:23.808Z,985.67
2017-12-28T01:54:25.235Z,985.68
2017-12-28T01:56:26.882Z,985.65
2017-12-28T01:58:28.583Z,985.66
2017-12-28T02:00:30.785Z,985.61
2017-12-28T02:02:32.325Z,985.61
2017-12-28T02:04:34.389Z,985.66
2017-12-28T02:06:35.860Z,985.68
2017-12-28T02:08:37.930Z,985.69
2017-12-28T02:10:40.113Z,985.73
2017-12-28T02:12:41.563Z,985.72
2017-12-28T02:14:43.785Z,985.74
2017-12-28T02:16:45.402Z,985.73
2017-12-28T02:18:46.879Z,985.78
2017-12-28T02:20:48.509Z,985.80
2017-12-28T02:22:49.977Z,985.87
2017-12-28T02:24:51.418Z,985.93
2017-12-28T02:26:52.874Z,985.97
2017-12-28T02:28:55.051Z,986.03
2017-12-28T02:30:56.650Z,986.05
2017-12-28T02:32:58.498Z,986.10
2017-12-28T02:34:59.967Z,986.16
2017-12-28T02:37:01.398Z,986.21
2017-12-28T02:39:03.086Z,986.25
2017-12-28T02:41:04.626Z,986.29
2017-12-28T02:43:06.749Z,986.34
2017-12-28T02:45:08.234Z,986.39
2017-12-28T02:47:10.272Z,986.43
2017-12-28T02:49:12.468Z,986.45
2017-12-28T02:51:14.168Z,986.46
2017-12-28T02:53:15.796Z,986.44
2017-12-28T02:55:17.415Z,986.48
2017-12-28T02:57:18.993Z,986.47
2017-12-28T02:59:21.154Z,986.42
2017-12-28T03:01:23.166Z,986.41
2017-12-28T03:03:25.363Z,986.42
2017-12-28T03:05:26.829Z,986.40
2017-12-28T03:07:28.555Z,986.41
2017-12-28T03:09:30.021Z,986.41
2017-12-28T03:11:31.516Z,986.43
2017-12-28T03:13:33.034Z,986.45
2017-12-28T03:15:34.521Z,986.53
2017-12-28T03:17:36.577Z,986.55
2017-12-28T03:19:37.958Z,986.59
2017-12-28T03:21:39.565Z,986.64
2017-12-28T03:23:41.211Z,986.69
2017-12-28T03:25:42.673Z,986.75
2017-12-28T03:27:44.286Z,986.77
2017-12-28T03:29:46.019Z,986.84
2017-12-28T03:31:47.464Z,986.93
2017-12-28T03:33:49.036Z,986.90
2017-12-28T03:35:50.734Z,986.91
2017-12-28T03:37:52.370Z,986.91
2017-12-28T03:39:54.016Z,986.91
2017-12-28T03:41:55.434Z,986.98
2017-12-28T03:43:56.878Z,987.06
2017-12-28T03:45:58.328Z,987.08
2017-12-28T03:47:59.867Z,987.11
2017-12-28T03:50:02.248Z,987.25
2017-12-28T03:52:03.764Z,987.27
2017-12-28T03:54:05.172Z,987.30
2017-12-28T03:56:06.578Z,987.32
2017-12-28T03:58:07.986Z,987.36
2017-12-28T04:00:09.392Z,987.36
2017-12-28T04:02:10.872Z,987.41
2017-12-28T04:04:12.532Z,987.46
2017-12-28T04:06:14.673Z,987.48
2017-12-28T04:08:16.078Z,987.57
2017-12-28T04:10:17.929Z,987.55
2017-12-28T04:12:19.889Z,987.57
2017-12-28T04:14:21.369Z,987.61
2017-12-28T04:16:22.812Z,987.63
2017-12-28T04:18:24.372Z,987.67
2017-12-28T04:20:25.918Z,987.66
2017-12-28T04:22:28.799Z,987.71
2017-12-28T04:24:30.281Z,987.74
2017-12-28T04:26:32.045Z,987.69
2017-12-28T04:28:33.520Z,987.74
2017-12-28T04:30:34.948Z,987.78
2017-12-28T04:32:36.564Z,987.84
2017-12-28T04:34:38.233Z,987.86
2017-12-28T04:36:40.424Z,987.90
2017-12-28T04:38:42.014Z,987.94
2017-12-28T04:40:43.689Z,987.99
2017-12-28T04:42:45.348Z,987.99
2017-12-28T04:44:47.020Z,988.04
2017-12-28T04:46:49.157Z,988.03
2017-12-28T04:48:50.833Z,988.10
2017-12-28T04:50:52.488Z,988.08
2017-12-28T04:52:54.575Z,988.12
2017-12-28T04:54:56.221Z,988.15
2017-12-28T04:56:58.785Z,988.19
2017-12-28T04:59:00.319Z,988.24
2017-12-28T05:01:02.183Z,988.28
2017-12-28T05:03:03.852Z,988.27
2017-12-28T05:05:05.894Z,988.30
2017-12-28T05:07:07.383Z,988.30
2017-12-28T05:09:08.803Z,988.39
2017-12-28T05:11:10.254Z,988.36
2017-12-28T05:13:11.698Z,988.37
2017-12-28T05:15:13.149Z,988.50
2017-12-28T05:17:14.621Z,988.53
2017-12-28T05:19:16.088Z,988.51
2017-12-28T05:21:17.491Z,988.55
2017-12-28T05:23:19.794Z,988.53
2017-12-28T05:25:21.363Z,988.59
2017-12-28T05:27:22.737Z,988.60
2017-12-28T05:29:24.144Z,988.67
2017-12-28T05:31:25.548Z,988.62
2017-12-28T05:33:28.624Z,988.65
2017-12-28T05:35:30.832Z,988.71
2017-12-28T05:37:32.320Z,988.69
2017-12-28T05:39:33.863Z,988.76
2017-12-28T05:41:35.460Z,988.72
2017-12-28T05:43:36.901Z,988.74
2017-12-28T05:45:39.041Z,988.76
2017-12-28T05:47:40.504Z,988.83
2017-12-28T05:49:41.959Z,988.82
2017-12-28T05:51:43.396Z,988.85
2017-12-28T05:53:44.955Z,988.87
2017-12-28T05:55:46.388Z,988.87
2017-12-28T05:57:48.054Z,988.92
2017-12-28T05:59:49.524Z,988.97
2017-12-28T06:01:51.168Z,989.02
2017-12-28T06:03:52.841Z,989.10
2017-12-28T06:05:54.284Z,989.16
2017-12-28T06:07:56.413Z,989.15
2017-12-28T06:09:57.926Z,989.24
2017-12-28T06:12:00.008Z,989.24
2017-12-28T06:14:01.515Z,989.28
2017-12-28T06:16:02.976Z,989.27
2017-12-28T06:18:04.413Z,989.29
2017-12-28T06:20:06.642Z,989.32
2017-12-28T06:22:08.247Z,989.35
2017-12-28T06:24:09.874Z,989.36
2017-12-28T06:26:11.348Z,989.38
2017-12-28T06:28:12.794Z,989.42
2017-12-28T06:30:14.446Z,989.47
2017-12-28T06:32:16.752Z,989.49
2017-12-28T06:34:18.363Z,989.51
2017-12-28T06:37:01.608Z,989.57
2017-12-28T06:39:03.690Z,989.59
2017-12-28T06:41:05.078Z,989.58
2017-12-28T06:43:06.492Z,989.61
2017-12-28T06:45:08.537Z,989.60
2017-12-28T06:47:10.109Z,989.69
2017-12-28T06:49:11.778Z,989.68
2017-12-28T06:51:13.413Z,989.78
2017-12-28T06:53:15.063Z,989.85
2017-12-28T06:55:16.595Z,989.91
2017-12-28T06:57:18.019Z,989.91
2017-12-28T06:59:20.185Z,989.95
2017-12-28T07:01:21.832Z,989.99
2017-12-28T07:03:23.270Z,990.01
2017-12-28T07:05:25.385Z,990.06
2017-12-28T07:07:26.839Z,990.07
2017-12-28T07:09:28.419Z,990.05
2017-12-28T07:11:29.859Z,990.08
2017-12-28T07:13:32.024Z,990.11
2017-12-28T07:15:34.120Z,990.18
2017-12-28T07:17:35.597Z,990.24
2017-12-28T07:19:37.171Z,990.20
2017-12-28T07:21:39.386Z,990.25
2017-12-28T07:23:40.775Z,990.24
2017-12-28T07:25:42.228Z,990.29
2017-12-28T07:27:43.896Z,990.29
2017-12-28T07:29:46.162Z,990.34
2017-12-28T07:31:47.725Z,990.38
2017-12-28T07:33:49.823Z,990.39
2017-12-28T07:35:51.415Z,990.47
2017-12-28T07:37:53.511Z,990.50
2017-12-28T07:39:54.965Z,990.51
2017-12-28T07:41:56.482Z,990.50
2017-12-28T07:43:58.988Z,990.54
2017-12-28T07:46:00.544Z,990.61
2017-12-28T07:48:01.997Z,990.63
2017-12-28T07:50:03.655Z,990.67
2017-12-28T07:52:05.379Z,990.68
2017-12-28T07:54:06.971Z,990.71
2017-12-28T07:56:08.402Z,990.71
2017-12-28T07:58:10.129Z,990.72
2017-12-28T08:00:12.321Z,990.69
2017-12-28T08:02:13.893Z,990.73
2017-12-28T08:04:15.310Z,990.65
2017-12-28T08:06:16.979Z,990.70
2017-12-28T08:08:18.563Z,990.75
2017-12-28T08:10:20.020Z,990.74
2017-12-28T08:12:21.450Z,990.79
2017-12-28T08:14:22.869Z,990.80
2017-12-28T08:16:24.276Z,990.83
2017-12-28T08:18:25.906Z,990.87
2017-12-28T08:20:27.505Z,990.88
2017-12-28T08:22:30.476Z,990.89
2017-12-28T08:24:32.122Z,990.93
2017-12-28T08:26:33.771Z,990.95
2017-12-28T08:28:35.367Z,991.02
2017-12-28T08:30:36.931Z,991.05
2017-12-28T08:32:39.073Z,991.03
2017-12-28T08:34:40.493Z,991.11
2017-12-28T08:36:42.150Z,991.10
2017-12-28T08:38:43.723Z,991.14
2017-12-28T08:40:45.328Z,991.09
2017-12-28T08:42:46.948Z,991.06
2017-12-28T08:44:48.393Z,991.09
2017-12-28T08:46:49.805Z,991.06
2017-12-28T08:48:51.458Z,991.07
2017-12-28T08:50:53.096Z,991.12
2017-12-28T08:52:54.671Z,991.15
2017-12-28T08:54:56.329Z,991.13
2017-12-28T08:56:57.797Z,991.10
2017-12-28T08:58:59.314Z,991.08
2017-12-28T09:01:00.967Z,991.08
2017-12-28T09:03:02.586Z,991.19
2017-12-28T09:05:04.264Z,991.26
2017-12-28T09:07:05.923Z,991.19
2017-12-28T09:09:07.440Z,991.18
2017-12-28T09:11:09.027Z,991.20
2017-12-28T09:13:10.708Z,991.24
2017-12-28T09:15:12.122Z,991.24
2017-12-28T09:17:13.975Z,991.23
2017-12-28T09:19:15.489Z,991.37
2017-12-28T09:21:16.969Z,991.43
2017-12-28T09:23:18.389Z,991.42
2017-12-28T09:25:20.046Z,991.44
2017-12-28T09:27:21.687Z,991.48
2017-12-28T09:29:23.135Z,991.44
2017-12-28T09:31:24.940Z,991.54
2017-12-28T09:33:26.455Z,991.49
2017-12-28T09:35:27.975Z,991.58
2017-12-28T09:37:29.447Z,991.52
2017-12-28T09:39:31.127Z,991.54
2017-12-28T09:41:32.766Z,991.59
2017-12-28T09:43:34.437Z,991.60
2017-12-28T09:45:36.744Z,991.67
2017-12-28T09:47:38.974Z,991.67
2017-12-28T09:49:40.451Z,991.60
2017-12-28T09:51:42.526Z,991.68
2017-12-28T09:53:44.664Z,991.71
2017-12-28T09:55:46.373Z,991.71
2017-12-28T09:57:47.802Z,991.68
2017-12-28T09:59:49.430Z,991.63
2017-12-28T10:01:51.873Z,991.63
2017-12-28T10:03:53.456Z,991.60
2017-12-28T10:05:55.078Z,991.64
2017-12-28T10:07:56.551Z,991.65
2017-12-28T10:09:57.999Z,991.74
2017-12-28T10:11:59.441Z,991.78
2017-12-28T10:14:00.903Z,991.77
2017-12-28T10:16:04.091Z,991.77
2017-12-28T10:18:05.719Z,991.76
2017-12-28T10:20:07.330Z,991.77
2017-12-28T10:22:09.534Z,991.74
2017-12-28T10:24:11.934Z,991.76
2017-12-28T10:26:13.396Z,991.76
2017-12-28T10:28:14.839Z,991.80
2017-12-28T10:30:16.529Z,991.83
2017-12-28T10:32:18.749Z,991.82
2017-12-28T10:34:20.254Z,991.87
2017-12-28T10:36:21.715Z,991.87
2017-12-28T10:38:25.237Z,991.88
2017-12-28T10:40:26.721Z,991.86
2017-12-28T10:42:28.759Z,991.91
2017-12-28T10:44:31.558Z,991.87
2017-12-28T10:46:32.976Z,991.92
2017-12-28T10:48:34.385Z,991.91
2017-12-28T10:50:35.795Z,991.94
2017-12-28T10:52:37.502Z,991.95
2017-12-28T10:54:38.993Z,992.00
2017-12-28T10:56:40.504Z,992.07
2017-12-28T10:58:42.961Z,992.08
2017-12-28T11:00:44.444Z,992.16
2017-12-28T11:02:46.729Z,992.14
2017-12-28T11:04:49.116Z,992.12
2017-12-28T11:06:50.734Z,992.16
2017-12-28T11:08:52.163Z,992.19
2017-12-28T11:10:53.578Z,992.18
2017-12-28T11:12:55.208Z,992.25
2017-12-28T11:14:56.863Z,992.24
2017-12-28T11:16:59.274Z,992.16
2017-12-28T11:19:00.740Z,992.21
2017-12-28T11:21:02.212Z,992.20
2017-12-28T11:23:03.948Z,992.21
2017-12-28T11:25:05.391Z,992.21
2017-12-28T11:27:06.973Z,992.28
2017-12-28T11:29:08.634Z,992.26
2017-12-28T11:31:10.948Z,992.27
2017-12-28T11:33:12.503Z,992.36
2017-12-28T11:35:14.091Z,992.37
2017-12-28T11:37:15.531Z,992.41
2017-12-28T11:39:17.678Z,992.41
2017-12-28T11:41:19.274Z,992.44
2017-12-28T11:43:20.718Z,992.39
2017-12-28T11:45:22.170Z,992.41
2017-12-28T11:47:23.755Z,992.44
2017-12-28T11:49:25.167Z,992.47
2017-12-28T11:51:26.743Z,992.44
2017-12-28T11:53:28.985Z,992.44
2017-12-28T11:55:30.848Z,992.45
2017-12-28T11:57:32.347Z,992.51
2017-12-28T11:59:33.838Z,992.55
2017-12-28T12:01:35.615Z,992.56
2017-12-28T12:03:37.328Z,992.53
2017-12-28T12:05:38.827Z,992.56
2017-12-28T12:07:40.319Z,992.58
2017-12-28T12:09:42.091Z,992.59
2017-12-28T12:11:44.005Z,992.66
2017-12-28T12:13:45.815Z,992.59
2017-12-28T12:15:47.380Z,992.68
2017-12-28T12:17:49.127Z,992.62
2017-12-28T12:19:50.728Z,992.66
2017-12-28T12:21:52.591Z,992.65
2017-12-28T12:23:54.750Z,992.64
2017-12-28T12:25:56.884Z,992.59
2017-12-28T12:27:58.556Z,992.63
2017-12-28T12:30:00.764Z,992.58
2017-12-28T12:32:02.488Z,992.56
2017-12-28T12:34:04.462Z,992.61
2017-12-28T12:36:45.893Z,992.67
2017-12-28T12:38:47.307Z,992.74
2017-12-28T12:40:48.723Z,992.78
2017-12-28T12:42:50.136Z,992.74
2017-12-28T12:44:51.548Z,992.79
2017-12-28T12:46:52.962Z,992.82
2017-12-28T12:48:54.373Z,992.77
2017-12-28T12:50:55.788Z,992.78
2017-12-28T12:52:57.195Z,992.77
2017-12-28T12:54:58.607Z,992.84
2017-12-28T12:57:00.017Z,992.88
2017-12-28T12:59:01.434Z,992.85
2017-12-28T13:01:02.841Z,992.85
2017-12-28T13:03:04.256Z,992.87
2017-12-28T13:05:05.659Z,992.96
2017-12-28T13:07:07.072Z,992.97
2017-12-28T13:09:08.487Z,992.93
2017-12-28T13:11:09.893Z,992.96
2017-12-28T13:13:11.309Z,992.96
2017-12-28T13:15:12.716Z,993.01
2017-12-28T13:17:14.112Z,993.03
2017-12-28T13:19:15.528Z,993.01
2017-12-28T13:21:16.939Z,993.10
2017-12-28T13:23:18.347Z,993.05
2017-12-28T13:25:19.793Z,993.09
2017-12-28T13:27:21.167Z,993.12
2017-12-28T13:29:22.580Z,993.08
2017-12-28T13:31:23.989Z,993.10
2017-12-28T13:33:25.397Z,993.19
2017-12-28T13:35:26.808Z,993.23
2017-12-28T13:37:28.250Z,993.14
2017-12-28T13:39:29.669Z,993.20
2017-12-28T13:41:31.068Z,993.20
2017-12-28T13:43:32.473Z,993.24
2017-12-28T13:45:33.887Z,993.22
2017-12-28T13:47:35.299Z,993.25
2017-12-28T13:49:36.712Z,993.23
2017-12-28T13:51:38.130Z,993.26
2017-12-28T13:53:39.570Z,993.15
2017-12-28T13:55:40.996Z,993.23
2017-12-28T13:57:42.485Z,993.21
2017-12-28T13:59:43.909Z,993.30
2017-12-28T14:01:45.462Z,993.35
2017-12-28T14:03:47.090Z,993.36
2017-12-28T14:05:48.503Z,993.47
2017-12-28T14:07:49.912Z,993.43
2017-12-28T14:09:51.307Z,993.46
2017-12-28T14:11:52.812Z,993.49
2017-12-28T14:13:54.317Z,993.52
2017-12-28T14:15:55.722Z,993.47
2017-12-28T14:17:57.125Z,993.54
2017-12-28T14:19:58.672Z,993.53
2017-12-28T14:22:00.510Z,993.57
2017-12-28T14:24:02.391Z,993.62
2017-12-28T14:26:03.955Z,993.64
2017-12-28T14:28:05.382Z,993.67
2017-12-28T14:30:06.801Z,993.73
2017-12-28T14:32:08.194Z,993.74
2017-12-28T14:34:09.579Z,993.79
2017-12-28T14:36:10.987Z,993.78
2017-12-28T14:38:12.681Z,993.81
2017-12-28T14:40:14.237Z,993.84
2017-12-28T14:42:15.640Z,993.90
2017-12-28T14:44:17.047Z,993.92
2017-12-28T14:46:18.470Z,993.91
2017-12-28T14:48:20.081Z,993.94
2017-12-28T14:50:21.438Z,993.97
2017-12-28T14:52:22.848Z,993.96
2017-12-28T14:54:24.249Z,994.06
2017-12-28T14:56:25.695Z,994.03
2017-12-28T14:58:27.101Z,994.11
2017-12-28T15:00:28.519Z,994.13
2017-12-28T15:02:29.925Z,994.14
2017-12-28T15:04:31.333Z,994.13
2017-12-28T15:06:32.738Z,994.19
2017-12-28T15:08:34.145Z,994.21
2017-12-28T15:10:35.558Z,994.17
2017-12-28T15:12:37.039Z,994.23
2017-12-28T15:14:38.468Z,994.20
2017-12-28T15:16:40.094Z,994.28
2017-12-28T15:18:41.592Z,994.30
2017-12-28T15:20:43.113Z,994.27
2017-12-28T15:22:44.557Z,994.28
2017-12-28T15:24:45.965Z,994.36
2017-12-28T15:26:47.379Z,994.42
2017-12-28T15:28:48.785Z,994.46
2017-12-28T15:30:50.198Z,994.50
2017-12-28T15:32:51.593Z,994.54
2017-12-28T15:34:52.997Z,994.51
2017-12-28T15:36:54.404Z,994.62
2017-12-28T15:38:55.835Z,994.65
2017-12-28T15:40:57.248Z,994.73
2017-12-28T15:42:58.658Z,994.80
2017-12-28T15:45:00.064Z,994.82
2017-12-28T15:47:01.463Z,994.82
2017-12-28T15:49:02.869Z,994.82
2017-12-28T15:51:04.274Z,994.82
2017-12-28T15:53:05.742Z,994.82
2017-12-28T15:55:07.158Z,994.87
2017-12-28T15:57:08.565Z,994.83
2017-12-28T15:59:09.970Z,994.90
2017-12-28T16:01:11.377Z,994.92
2017-12-28T16:03:12.887Z,994.98
2017-12-28T16:05:14.346Z,994.99
2017-12-28T16:07:15.780Z,994.96
2017-12-28T16:09:17.259Z,995.00
2017-12-28T16:11:18.686Z,995.06
2017-12-28T16:13:20.087Z,995.07
2017-12-28T16:15:21.499Z,995.08
2017-12-28T16:17:22.904Z,995.07
2017-12-28T16:19:24.310Z,995.18
2017-12-28T16:21:25.717Z,995.14
2017-12-28T16:23:27.127Z,995.16
2017-12-28T16:25:28.571Z,995.21
2017-12-28T16:27:29.983Z,995.24
2017-12-28T16:29:31.348Z,995.29
2017-12-28T16:31:32.766Z,995.35
2017-12-28T16:33:34.301Z,995.30
2017-12-28T16:35:35.716Z,995.35
2017-12-28T16:37:37.129Z,995.32
2017-12-28T16:39:38.533Z,995.37
2017-12-28T16:41:39.935Z,995.39
2017-12-28T16:43:41.344Z,995.46
2017-12-28T16:45:42.747Z,995.49
2017-12-28T16:47:44.214Z,995.53
2017-12-28T16:49:45.692Z,995.60
2017-12-28T16:51:47.204Z,995.60
2017-12-28T16:53:48.622Z,995.63
2017-12-28T16:55:50.029Z,995.64
2017-12-28T16:57:51.432Z,995.67
2017-12-28T16:59:52.838Z,995.70
2017-12-28T17:01:54.240Z,995.64
2017-12-28T17:03:55.649Z,995.73
2017-12-28T17:05:57.053Z,995.73
2017-12-28T17:07:58.529Z,995.75
2017-12-28T17:09:59.945Z,995.79
2017-12-28T17:12:01.345Z,995.78
2017-12-28T17:14:02.763Z,995.82
2017-12-28T17:16:04.323Z,995.81
2017-12-28T17:18:05.714Z,995.89
2017-12-28T17:20:07.116Z,995.86
2017-12-28T17:22:08.524Z,995.86
2017-12-28T17:24:09.930Z,995.88
2017-12-28T17:26:11.335Z,995.91
2017-12-28T17:28:12.791Z,995.91
2017-12-28T17:30:14.228Z,995.96
2017-12-28T17:32:15.638Z,995.96
2017-12-28T17:34:17.048Z,995.97
2017-12-28T17:36:18.445Z,996.04
2017-12-28T17:38:19.852Z,996.04
2017-12-28T17:40:21.256Z,996.08
2017-12-28T17:42:22.665Z,996.05
2017-12-28T17:44:24.067Z,996.10
2017-12-28T17:46:25.483Z,996.12
2017-12-28T17:48:26.914Z,996.09
2017-12-28T17:50:28.381Z,996.15
2017-12-28T17:52:29.785Z,996.11
2017-12-28T17:54:31.183Z,996.07
2017-12-28T17:56:32.688Z,996.16
2017-12-28T17:58:34.169Z,996.24
2017-12-28T18:00:35.523Z,996.25
2017-12-28T18:02:36.922Z,996.29
2017-12-28T18:04:38.353Z,996.25
2017-12-28T18:06:39.738Z,996.32
2017-12-28T18:08:41.216Z,996.32
2017-12-28T18:10:42.635Z,996.38
2017-12-28T18:12:44.631Z,996.43
2017-12-28T18:14:46.036Z,996.50
2017-12-28T18:16:47.443Z,996.46
2017-12-28T18:18:48.845Z,996.48
2017-12-28T18:20:50.388Z,996.44
2017-12-28T18:22:51.867Z,996.51
2017-12-28T18:24:53.370Z,996.56
2017-12-28T18:26:54.799Z,996.58
2017-12-28T18:28:56.229Z,996.57
2017-12-28T18:30:57.636Z,996.61
2017-12-28T18:32:59.036Z,996.64
2017-12-28T18:35:00.448Z,996.70
2017-12-28T18:37:01.852Z,996.70
2017-12-28T18:39:03.288Z,996.74
2017-12-28T18:41:04.687Z,996.78
2017-12-28T18:43:06.089Z,996.75
2017-12-28T18:45:07.543Z,996.86
2017-12-28T18:47:08.917Z,996.84
2017-12-28T18:49:10.309Z,996.85
2017-12-28T18:51:11.718Z,996.86
2017-12-28T18:53:13.123Z,996.92
2017-12-28T18:55:14.521Z,996.94
2017-12-28T18:57:15.929Z,996.91
2017-12-28T18:59:17.329Z,996.93
2017-12-28T19:01:18.731Z,996.93
2017-12-28T19:03:20.140Z,996.97
2017-12-28T19:05:21.547Z,997.00
2017-12-28T19:07:23.036Z,996.96
2017-12-28T19:09:24.467Z,997.01
2017-12-28T19:11:25.884Z,997.05
2017-12-28T19:13:27.287Z,997.08
2017-12-28T19:15:28.691Z,997.11
2017-12-28T19:17:30.097Z,997.07
2017-12-28T19:19:31.611Z,997.14
2017-12-28T19:21:33.015Z,997.13
2017-12-28T19:23:34.456Z,997.16
2017-12-28T19:25:35.891Z,997.20
2017-12-28T19:27:37.301Z,997.22
2017-12-28T19:29:38.705Z,997.21
2017-12-28T19:31:40.500Z,997.22
2017-12-28T19:33:41.959Z,997.27
2017-12-28T19:35:43.363Z,997.23
2017-12-28T19:37:44.768Z,997.30
2017-12-28T19:39:46.168Z,997.32
2017-12-28T19:41:47.584Z,997.32
2017-12-28T19:43:49.120Z,997.38
2017-12-28T19:45:50.723Z,997.45
2017-12-28T19:47:52.176Z,997.41
2017-12-28T19:49:53.586Z,997.43
2017-12-28T19:51:55.837Z,997.47
2017-12-28T19:53:57.248Z,997.48
2017-12-28T19:55:58.647Z,997.47
2017-12-28T19:58:00.050Z,997.51
2017-12-28T20:00:01.458Z,997.53
2017-12-28T20:02:02.875Z,997.54
2017-12-28T20:04:04.282Z,997.54
2017-12-28T20:06:05.685Z,997.56
2017-12-28T20:08:07.089Z,997.52
2017-12-28T20:10:08.497Z,997.54
2017-12-28T20:12:09.904Z,997.58
2017-12-28T20:14:11.306Z,997.61
2017-12-28T20:16:12.710Z,997.62
2017-12-28T20:18:14.142Z,997.60
2017-12-28T20:20:15.544Z,997.70
2017-12-28T20:22:16.953Z,997.67
2017-12-28T20:24:18.355Z,997.67
2017-12-28T20:26:19.791Z,997.65
2017-12-28T20:28:21.190Z,997.72
2017-12-28T20:30:22.593Z,997.69
2017-12-28T20:32:23.995Z,997.74
2017-12-28T20:34:25.398Z,997.72
2017-12-28T20:36:26.804Z,997.79
2017-12-28T20:38:28.212Z,997.80
2017-12-28T20:40:29.621Z,997.83
2017-12-28T20:42:31.023Z,997.83
2017-12-28T20:44:32.423Z,997.82
2017-12-28T20:46:33.843Z,997.87
2017-12-28T20:48:35.246Z,997.85
2017-12-28T20:50:36.653Z,997.93
2017-12-28T20:52:38.053Z,997.86
2017-12-28T20:54:39.463Z,997.85
2017-12-28T20:56:40.863Z,997.89
2017-12-28T20:58:42.268Z,997.91
2017-12-28T21:00:43.674Z,997.95
2017-12-28T21:02:45.077Z,998.00
2017-12-28T21:04:47.099Z,998.07
2017-12-28T21:06:48.504Z,998.06
2017-12-28T21:08:49.940Z,998.03
2017-12-28T21:10:51.370Z,998.12
2017-12-28T21:12:52.788Z,998.11
2017-12-28T21:14:54.238Z,998.09
2017-12-28T21:16:55.650Z,998.10
2017-12-28T21:18:57.142Z,998.11
2017-12-28T21:20:58.576Z,998.07
2017-12-28T21:22:59.956Z,998.11
2017-12-28T21:25:01.364Z,998.12
2017-12-28T21:27:02.773Z,998.11
2017-12-28T21:29:04.173Z,998.11
2017-12-28T21:31:05.571Z,998.19
2017-12-28T21:33:07.237Z,998.21
2017-12-28T21:35:08.663Z,998.23
2017-12-28T21:37:10.095Z,998.24
2017-12-28T21:39:11.527Z,998.26
2017-12-28T21:41:12.984Z,998.30
2017-12-28T21:43:14.416Z,998.33
2017-12-28T21:45:15.891Z,998.30
2017-12-28T21:47:17.451Z,998.38
2017-12-28T21:49:18.877Z,998.38
2017-12-28T21:51:20.296Z,998.43
2017-12-28T21:53:21.802Z,998.49
2017-12-28T21:55:23.208Z,998.52
2017-12-28T21:57:24.612Z,998.58
2017-12-28T21:59:26.015Z,998.66
2017-12-28T22:01:27.419Z,998.69
2017-12-28T22:03:28.822Z,998.71
2017-12-28T22:05:30.226Z,998.70
2017-12-28T22:07:31.629Z,998.75
2017-12-28T22:09:33.095Z,998.76
2017-12-28T22:11:34.502Z,998.78
2017-12-28T22:13:35.911Z,998.83
2017-12-28T22:15:37.376Z,998.83
2017-12-28T22:17:38.796Z,998.87
2017-12-28T22:19:40.204Z,998.87
2017-12-28T22:21:41.603Z,998.93
2017-12-28T22:23:43.008Z,998.96
2017-12-28T22:25:44.413Z,998.95
2017-12-28T22:27:45.818Z,998.97
2017-12-28T22:29:47.365Z,998.95
2017-12-28T22:31:48.860Z,998.93
2017-12-28T22:33:50.263Z,998.94
2017-12-28T22:35:51.674Z,998.97
2017-12-28T22:37:53.074Z,998.94
2017-12-28T22:39:54.478Z,998.99
2017-12-28T22:41:55.935Z,998.95
2017-12-28T22:43:57.416Z,998.98
2017-12-28T22:45:58.974Z,998.94
2017-12-28T22:48:01.007Z,999.00
2017-12-28T22:50:03.306Z,998.98
2017-12-28T22:52:05.058Z,999.06
2017-12-28T22:54:06.535Z,999.07
2017-12-28T22:56:08.001Z,999.09
2017-12-28T22:58:09.457Z,999.15
2017-12-28T23:00:10.924Z,999.15
2017-12-28T23:02:12.390Z,999.17
2017-12-28T23:04:14.028Z,999.20
2017-12-28T23:06:15.562Z,999.14
2017-12-28T23:08:17.102Z,999.30
2017-12-28T23:10:18.713Z,999.27
2017-12-28T23:12:20.136Z,999.24
2017-12-28T23:14:21.593Z,999.30
2017-12-28T23:16:23.078Z,999.29
2017-12-28T23:18:24.500Z,999.28
2017-12-28T23:20:25.925Z,999.29
2017-12-28T23:22:27.342Z,999.30
2017-12-28T23:24:28.846Z,999.25
2017-12-28T23:26:30.284Z,999.28
2017-12-28T23:28:31.699Z,999.35
2017-12-28T23:30:33.264Z,999.39
2017-12-28T23:33:15.700Z,999.40
2017-12-28T23:35:17.131Z,999.46
2017-12-28T23:37:18.539Z,999.46
2017-12-28T23:39:19.939Z,999.50
2017-12-28T23:41:21.344Z,999.53
2017-12-28T23:43:22.764Z,999.46
2017-12-28T23:45:24.158Z,999.51
2017-12-28T23:47:25.558Z,999.49
2017-12-28T23:49:26.982Z,999.53
2017-12-28T23:51:28.606Z,999.51
2017-12-28T23:53:30.048Z,999.51
2017-12-28T23:55:31.507Z,999.55
2017-12-28T23:57:32.919Z,999.56
2017-12-28T23:59:34.320Z,999.57
